createdAt,value
2023-01-29T00:01:15.864Z,3.85
2023-01-29T00:04:19.736Z,4.00
2023-01-29T00:07:22.097Z,3.70
2023-01-29T00:10:26.051Z,3.95
2023-01-29T00:13:30.989Z,3.89
2023-01-29T00:16:33.657Z,4.02
2023-01-29T00:19:36.307Z,4.03
2023-01-29T00:22:38.960Z,4.04
2023-01-29T00:25:42.729Z,3.98
2023-01-29T00:28:47.257Z,3.98
2023-01-29T00:31:53.716Z,3.92
2023-01-29T00:34:57.988Z,3.63
2023-01-29T00:38:00.424Z,3.77
2023-01-29T00:41:29.601Z,3.48
2023-01-29T00:44:50.537Z,3.82
2023-01-29T00:47:53.159Z,3.74
2023-01-29T00:50:55.472Z,3.72
2023-01-29T00:53:58.422Z,3.37
2023-01-29T00:57:01.759Z,3.46
2023-01-29T01:00:07.713Z,3.60
2023-01-29T01:03:10.780Z,3.68
2023-01-29T01:06:15.944Z,3.50
2023-01-29T01:09:36.913Z,2.71
2023-01-29T01:12:40.127Z,3.58
2023-01-29T01:15:42.445Z,3.53
2023-01-29T01:18:45.324Z,3.27
2023-01-29T01:21:48.414Z,3.35
2023-01-29T01:24:51.044Z,3.31
2023-01-29T01:31:11.678Z,3.21
2023-01-29T01:34:14.101Z,3.18
2023-01-29T01:37:17.168Z,3.13
2023-01-29T01:40:28.674Z,2.95
2023-01-29T01:43:50.807Z,3.07
2023-01-29T01:46:55.661Z,3.06
2023-01-29T01:50:03.386Z,3.01
2023-01-29T01:53:54.894Z,2.88
2023-01-29T01:57:24.215Z,2.54
2023-01-29T02:00:27.120Z,2.83
2023-01-29T02:03:52.243Z,2.93
2023-01-29T02:07:15.057Z,2.86
2023-01-29T02:10:25.552Z,2.72
2023-01-29T02:13:31.153Z,2.79
2023-01-29T02:16:40.801Z,2.81
2023-01-29T02:20:26.411Z,2.81
2023-01-29T02:24:11.631Z,2.81
2023-01-29T02:27:20.019Z,2.82
2023-01-29T02:30:36.568Z,2.77
2023-01-29T02:34:01.048Z,2.80
2023-01-29T02:37:11.430Z,2.82
2023-01-29T02:40:38.488Z,2.81
2023-01-29T02:44:01.858Z,2.69
2023-01-29T02:47:42.096Z,2.75
2023-01-29T02:51:01.765Z,2.69
2023-01-29T02:54:17.008Z,2.53
2023-01-29T02:57:41.815Z,2.66
2023-01-29T03:04:34.159Z,2.46
2023-01-29T03:07:46.515Z,2.50
2023-01-29T03:10:59.689Z,2.72
2023-01-29T03:14:33.278Z,2.54
2023-01-29T03:17:56.875Z,2.44
2023-01-29T03:21:08.374Z,2.00
2023-01-29T03:24:33.378Z,2.63
2023-01-29T03:28:06.294Z,2.43
2023-01-29T03:31:36.686Z,2.51
2023-01-29T03:34:52.035Z,2.63
2023-01-29T03:37:59.536Z,2.69
2023-01-29T03:41:09.062Z,2.29
2023-01-29T03:44:21.822Z,2.72
2023-01-29T03:47:45.453Z,2.18
2023-01-29T03:51:04.608Z,2.21
2023-01-29T03:54:13.895Z,2.75
2023-01-29T03:57:30.575Z,2.57
2023-01-29T04:00:56.250Z,2.63
2023-01-29T04:04:17.241Z,2.82
2023-01-29T04:07:27.051Z,2.88
2023-01-29T04:10:35.802Z,2.93
2023-01-29T04:13:47.290Z,2.75
2023-01-29T04:17:03.019Z,2.78
2023-01-29T04:20:06.689Z,2.89
2023-01-29T04:23:23.328Z,3.05
2023-01-29T04:26:51.972Z,2.90
2023-01-29T04:30:07.286Z,2.90
2023-01-29T04:33:40.561Z,3.07
2023-01-29T04:36:58.175Z,3.10
2023-01-29T04:40:07.834Z,3.01
2023-01-29T04:43:21.165Z,3.16
2023-01-29T04:46:36.751Z,3.01
2023-01-29T04:49:42.089Z,3.22
2023-01-29T04:53:02.652Z,3.24
2023-01-29T04:56:21.189Z,3.17
2023-01-29T04:59:33.656Z,3.22
2023-01-29T05:02:39.694Z,3.10
2023-01-29T05:05:46.638Z,3.25
2023-01-29T05:08:51.228Z,3.19
2023-01-29T05:11:56.379Z,3.22
2023-01-29T05:15:05.308Z,3.05
2023-01-29T05:18:09.156Z,3.09
2023-01-29T05:21:11.988Z,3.24
2023-01-29T05:24:20.421Z,3.26
2023-01-29T05:27:50.090Z,3.26
2023-01-29T05:30:55.719Z,3.26
2023-01-29T05:33:58.439Z,3.26
2023-01-29T05:37:00.785Z,3.28
2023-01-29T05:40:03.644Z,3.29
2023-01-29T05:43:13.999Z,3.25
2023-01-29T05:46:16.672Z,3.27
2023-01-29T05:49:20.628Z,3.25
2023-01-29T05:52:23.228Z,3.04
2023-01-29T05:55:26.287Z,3.22
2023-01-29T05:58:31.309Z,3.26
2023-01-29T06:01:33.801Z,3.21
2023-01-29T06:04:36.582Z,3.26
2023-01-29T06:07:42.245Z,3.27
2023-01-29T06:10:46.151Z,3.22
2023-01-29T06:13:48.941Z,2.71
2023-01-29T06:16:51.631Z,3.01
2023-01-29T06:19:53.988Z,3.03
2023-01-29T06:22:56.668Z,2.82
2023-01-29T06:26:08.220Z,3.05
2023-01-29T06:29:10.841Z,2.99
2023-01-29T06:32:13.162Z,3.19
2023-01-29T06:35:15.896Z,3.22
2023-01-29T06:38:18.231Z,3.13
2023-01-29T06:41:25.732Z,3.13
2023-01-29T06:44:28.236Z,3.15
2023-01-29T06:47:31.103Z,2.98
2023-01-29T06:50:33.470Z,2.83
2023-01-29T06:53:37.724Z,2.94
2023-01-29T06:56:40.006Z,3.16
2023-01-29T06:59:42.909Z,3.13
2023-01-29T07:02:45.264Z,2.60
2023-01-29T07:05:52.928Z,2.94
2023-01-29T07:08:55.594Z,2.93
2023-01-29T07:12:37.143Z,3.04
2023-01-29T07:15:42.961Z,3.04
2023-01-29T07:18:48.132Z,3.09
2023-01-29T07:21:50.490Z,3.16
2023-01-29T07:24:53.112Z,3.09
2023-01-29T07:27:55.511Z,3.19
2023-01-29T07:31:00.768Z,3.05
2023-01-29T07:34:03.621Z,3.22
2023-01-29T07:37:06.393Z,3.34
2023-01-29T07:40:12.272Z,3.17
2023-01-29T07:43:15.040Z,3.39
2023-01-29T07:46:17.632Z,3.40
2023-01-29T07:49:20.427Z,3.42
2023-01-29T07:52:22.907Z,3.41
2023-01-29T07:55:25.747Z,3.39
2023-01-29T07:58:28.109Z,3.46
2023-01-29T08:01:30.801Z,3.50
2023-01-29T08:04:33.390Z,3.32
2023-01-29T08:07:35.710Z,3.35
2023-01-29T08:10:39.790Z,3.40
2023-01-29T08:13:42.168Z,3.39
2023-01-29T08:16:44.844Z,3.36
2023-01-29T08:19:47.280Z,3.46
2023-01-29T08:22:50.355Z,3.43
2023-01-29T08:25:52.823Z,3.35
2023-01-29T08:28:55.520Z,3.28
2023-01-29T08:31:57.869Z,3.50
2023-01-29T08:35:00.539Z,3.49
2023-01-29T08:38:05.161Z,3.31
2023-01-29T08:41:08.231Z,3.55
2023-01-29T08:44:11.055Z,3.39
2023-01-29T08:47:13.770Z,3.42
2023-01-29T08:50:17.665Z,3.52
2023-01-29T08:53:24.642Z,3.49
2023-01-29T08:56:26.995Z,3.39
2023-01-29T08:59:29.602Z,3.49
2023-01-29T09:02:32.686Z,3.22
2023-01-29T09:05:37.212Z,3.34
2023-01-29T09:08:40.170Z,3.22
2023-01-29T09:11:42.876Z,3.25
2023-01-29T09:14:45.212Z,3.27
2023-01-29T09:17:49.465Z,3.49
2023-01-29T09:20:53.499Z,3.48
2023-01-29T09:23:56.002Z,3.50
2023-01-29T09:26:58.584Z,3.52
2023-01-29T09:30:01.215Z,3.39
2023-01-29T09:33:07.446Z,3.31
2023-01-29T09:36:10.138Z,3.49
2023-01-29T09:39:12.437Z,3.41
2023-01-29T09:42:24.409Z,3.38
2023-01-29T09:45:28.422Z,3.37
2023-01-29T09:48:35.161Z,3.59
2023-01-29T09:51:43.384Z,3.38
2023-01-29T09:55:11.569Z,3.35
2023-01-29T09:58:19.297Z,3.31
2023-01-29T10:01:41.055Z,3.56
2023-01-29T10:04:57.763Z,3.38
2023-01-29T10:08:21.779Z,3.66
2023-01-29T10:11:46.296Z,3.75
2023-01-29T10:14:56.968Z,3.71
2023-01-29T10:18:05.644Z,3.87
2023-01-29T10:21:38.636Z,3.89
2023-01-29T10:24:41.180Z,3.83
2023-01-29T10:27:50.137Z,3.73
2023-01-29T10:31:00.155Z,3.86
2023-01-29T10:34:23.742Z,3.64
2023-01-29T10:37:45.021Z,3.79
2023-01-29T10:41:04.236Z,3.86
2023-01-29T10:44:54.545Z,3.87
2023-01-29T10:48:04.177Z,3.85
2023-01-29T10:51:19.210Z,3.89
2023-01-29T10:54:21.424Z,3.83
2023-01-29T10:57:39.314Z,3.80
2023-01-29T11:00:42.636Z,3.79
2023-01-29T11:03:45.594Z,3.76
2023-01-29T11:06:49.640Z,3.61
2023-01-29T11:10:02.892Z,3.83
2023-01-29T11:13:05.591Z,3.80
2023-01-29T11:16:09.359Z,3.73
2023-01-29T11:19:11.846Z,3.85
2023-01-29T11:22:17.405Z,3.74
2023-01-29T11:25:20.542Z,3.73
2023-01-29T11:28:47.022Z,3.79
2023-01-29T11:31:49.445Z,3.91
2023-01-29T11:35:01.169Z,3.89
2023-01-29T11:38:24.751Z,3.88
2023-01-29T11:41:27.637Z,3.94
2023-01-29T11:44:29.954Z,3.92
2023-01-29T11:47:33.067Z,3.95
2023-01-29T11:50:35.532Z,3.91
2023-01-29T11:53:45.097Z,3.91
2023-01-29T11:56:48.899Z,3.79
2023-01-29T11:59:53.662Z,3.79
2023-01-29T12:03:04.845Z,4.01
2023-01-29T12:06:17.895Z,4.00
2023-01-29T12:09:24.534Z,4.09
2023-01-29T12:12:30.601Z,4.11
2023-01-29T12:15:33.566Z,3.97
2023-01-29T12:18:41.598Z,4.13
2023-01-29T12:21:51.091Z,4.14
2023-01-29T12:25:03.935Z,4.15
2023-01-29T12:28:08.500Z,3.97
2023-01-29T12:31:18.068Z,4.16
2023-01-29T12:34:45.197Z,4.18
2023-01-29T12:38:20.156Z,4.26
2023-01-29T12:41:37.988Z,4.17
2023-01-29T12:44:49.724Z,4.31
2023-01-29T12:47:56.347Z,4.51
2023-01-29T12:51:07.683Z,4.58
2023-01-29T12:54:15.496Z,4.58
2023-01-29T12:57:48.634Z,4.49
2023-01-29T13:00:54.531Z,4.76
2023-01-29T13:04:10.122Z,4.73
2023-01-29T13:07:21.259Z,4.60
2023-01-29T13:10:30.216Z,4.74
2023-01-29T13:14:05.868Z,4.99
2023-01-29T13:17:27.959Z,5.90
2023-01-29T13:20:34.060Z,5.87
2023-01-29T13:23:40.660Z,6.52
2023-01-29T13:26:46.262Z,6.59
2023-01-29T13:29:49.092Z,7.52
2023-01-29T13:33:09.180Z,8.67
2023-01-29T13:36:22.089Z,9.24
2023-01-29T13:39:31.307Z,9.51
2023-01-29T13:42:46.024Z,8.89
2023-01-29T13:45:51.580Z,8.29
2023-01-29T13:48:58.220Z,7.71
2023-01-29T13:52:31.775Z,7.12
2023-01-29T13:55:41.040Z,6.84
2023-01-29T13:58:46.182Z,6.45
2023-01-29T14:01:48.797Z,6.06
2023-01-29T14:04:51.910Z,5.72
2023-01-29T14:07:54.294Z,5.27
2023-01-29T14:11:15.409Z,5.08
2023-01-29T14:14:49.123Z,5.13
2023-01-29T14:18:00.123Z,4.87
2023-01-29T14:21:16.745Z,4.65
2023-01-29T14:24:28.073Z,4.29
2023-01-29T14:27:31.509Z,4.16
2023-01-29T14:30:35.538Z,4.07
2023-01-29T14:33:43.449Z,3.72
2023-01-29T14:36:55.174Z,3.53
2023-01-29T14:40:19.088Z,3.60
2023-01-29T14:43:22.008Z,3.41
2023-01-29T14:46:36.098Z,3.15
2023-01-29T14:49:58.942Z,3.18
2023-01-29T14:53:23.286Z,3.08
2023-01-29T14:56:41.024Z,2.97
2023-01-29T15:00:05.280Z,2.88
2023-01-29T15:03:13.528Z,2.51
2023-01-29T15:06:20.180Z,2.68
2023-01-29T15:09:46.063Z,2.51
2023-01-29T15:12:56.757Z,2.39
2023-01-29T15:16:15.105Z,2.39
2023-01-29T15:19:32.156Z,2.30
2023-01-29T15:22:43.616Z,2.43
2023-01-29T15:25:52.562Z,2.41
2023-01-29T15:29:04.863Z,2.30
2023-01-29T15:32:08.258Z,2.25
2023-01-29T15:35:26.427Z,2.04
2023-01-29T15:38:29.676Z,2.12
2023-01-29T15:41:32.281Z,2.06
2023-01-29T15:44:34.813Z,2.10
2023-01-29T15:47:37.644Z,2.09
2023-01-29T15:50:41.818Z,2.05
2023-01-29T15:53:58.315Z,1.83
2023-01-29T15:57:02.529Z,1.83
2023-01-29T16:00:07.471Z,1.58
2023-01-29T16:03:16.624Z,1.90
2023-01-29T16:06:20.625Z,1.96
2023-01-29T16:09:26.073Z,1.96
2023-01-29T16:12:28.850Z,1.79
2023-01-29T16:15:35.029Z,1.34
2023-01-29T16:18:41.034Z,1.84
2023-01-29T16:22:01.932Z,1.82
2023-01-29T16:25:08.751Z,1.81
2023-01-29T16:28:11.341Z,1.57
2023-01-29T16:31:31.513Z,1.58
2023-01-29T16:34:39.809Z,1.32
2023-01-29T16:37:48.877Z,1.35
2023-01-29T16:41:30.932Z,1.48
2023-01-29T16:44:39.342Z,1.46
2023-01-29T16:47:41.724Z,1.47
2023-01-29T16:50:54.634Z,1.41
2023-01-29T16:53:57.509Z,1.32
2023-01-29T16:57:02.057Z,1.51
2023-01-29T17:00:08.250Z,1.47
2023-01-29T17:03:12.673Z,1.40
2023-01-29T17:06:24.680Z,1.42
2023-01-29T17:09:30.043Z,1.32
2023-01-29T17:12:33.677Z,1.28
2023-01-29T17:15:47.783Z,1.06
2023-01-29T17:18:50.433Z,1.23
2023-01-29T17:21:52.994Z,1.38
2023-01-29T17:24:55.514Z,1.37
2023-01-29T17:28:01.562Z,1.12
2023-01-29T17:31:06.692Z,1.09
2023-01-29T17:34:14.222Z,1.18
2023-01-29T17:37:17.074Z,1.09
2023-01-29T17:40:37.098Z,0.87
2023-01-29T17:43:39.471Z,0.87
2023-01-29T17:46:42.979Z,0.85
2023-01-29T17:49:45.389Z,1.08
2023-01-29T17:52:48.463Z,0.92
2023-01-29T17:55:51.432Z,0.96
2023-01-29T17:58:54.180Z,0.97
2023-01-29T18:01:56.770Z,0.88
2023-01-29T18:04:59.585Z,0.90
2023-01-29T18:08:02.437Z,1.02
2023-01-29T18:11:05.757Z,0.85
2023-01-29T18:14:12.059Z,0.97
2023-01-29T18:17:22.235Z,0.86
2023-01-29T18:20:27.503Z,0.94
2023-01-29T18:23:31.270Z,0.96
2023-01-29T18:26:33.840Z,0.89
2023-01-29T18:29:36.508Z,0.87
2023-01-29T18:32:39.210Z,0.79
2023-01-29T18:35:43.962Z,0.77
2023-01-29T18:38:46.261Z,0.62
2023-01-29T18:41:48.861Z,0.65
2023-01-29T18:44:51.313Z,0.84
2023-01-29T18:47:54.569Z,0.80
2023-01-29T18:50:57.248Z,0.53
2023-01-29T18:53:59.868Z,0.72
2023-01-29T18:57:13.370Z,0.52
2023-01-29T19:00:17.685Z,0.56
2023-01-29T19:03:20.156Z,0.55
2023-01-29T19:06:22.823Z,0.37
2023-01-29T19:09:25.144Z,0.38
2023-01-29T19:12:27.806Z,0.38
2023-01-29T19:15:30.178Z,0.58
2023-01-29T19:18:32.897Z,0.59
2023-01-29T19:21:36.805Z,0.58
2023-01-29T19:24:39.453Z,0.57
2023-01-29T19:27:41.768Z,0.25
2023-01-29T19:30:44.520Z,0.40
2023-01-29T19:33:46.903Z,0.32
2023-01-29T19:36:49.589Z,0.41
2023-01-29T19:39:52.111Z,0.36
2023-01-29T19:42:55.995Z,0.39
2023-01-29T19:46:01.913Z,0.39
2023-01-29T19:49:06.678Z,0.62
2023-01-29T19:52:14.975Z,0.53
2023-01-29T19:55:19.097Z,0.37
2023-01-29T19:58:23.869Z,0.52
2023-01-29T20:01:29.701Z,0.53
2023-01-29T20:04:32.520Z,0.51
2023-01-29T20:07:36.039Z,0.52
2023-01-29T20:10:39.010Z,0.53
2023-01-29T20:13:41.419Z,0.53
2023-01-29T20:16:43.991Z,0.40
2023-01-29T20:19:46.484Z,0.35
2023-01-29T20:22:49.085Z,0.60
2023-01-29T20:25:52.153Z,0.54
2023-01-29T20:28:54.723Z,0.57
2023-01-29T20:31:57.357Z,0.29
2023-01-29T20:35:00.143Z,0.52
2023-01-29T20:38:03.419Z,0.52
2023-01-29T20:41:16.945Z,0.46
2023-01-29T20:44:19.381Z,0.46
2023-01-29T20:47:22.065Z,0.29
2023-01-29T20:50:24.456Z,0.30
2023-01-29T20:53:27.025Z,0.28
2023-01-29T20:56:36.280Z,0.26
2023-01-29T20:59:47.212Z,0.41
2023-01-29T21:02:49.529Z,0.44
2023-01-29T21:05:52.398Z,0.46
2023-01-29T21:08:55.712Z,0.29
2023-01-29T21:11:58.331Z,0.29
2023-01-29T21:15:00.845Z,0.43
2023-01-29T21:18:06.039Z,0.43
2023-01-29T21:21:08.401Z,0.15
2023-01-29T21:24:11.830Z,0.23
2023-01-29T21:27:14.151Z,0.40
2023-01-29T21:30:18.219Z,0.45
2023-01-29T21:33:20.943Z,0.46
2023-01-29T21:36:23.594Z,0.21
2023-01-29T21:39:26.437Z,0.16
2023-01-29T21:42:48.085Z,0.32
2023-01-29T21:45:56.670Z,0.36
2023-01-29T21:48:59.297Z,0.34
2023-01-29T21:52:01.623Z,0.33
2023-01-29T21:55:05.460Z,0.35
2023-01-29T21:58:07.838Z,0.32
2023-01-29T22:01:36.499Z,0.19
2023-01-29T22:04:32.971Z,0.30
2023-01-29T22:07:35.286Z,0.15
2023-01-29T22:10:39.014Z,0.13
2023-01-29T22:13:41.458Z,0.23
2023-01-29T22:16:45.451Z,0.10
2023-01-29T22:19:48.295Z,0.09
2023-01-29T22:22:51.049Z,0.27
2023-01-29T22:25:53.699Z,0.08
2023-01-29T22:28:57.056Z,0.16
2023-01-29T22:31:59.513Z,0.23
2023-01-29T22:35:02.132Z,0.13
2023-01-29T22:38:04.993Z,0.22
2023-01-29T22:41:10.899Z,0.07
2023-01-29T22:44:13.172Z,0.24
2023-01-29T22:47:16.081Z,0.19
2023-01-29T22:50:18.648Z,0.20
2023-01-29T22:53:21.446Z,0.19
2023-01-29T22:56:29.548Z,0.25
2023-01-29T22:59:32.884Z,0.32
2023-01-29T23:02:35.263Z,0.14
2023-01-29T23:05:37.825Z,0.30
2023-01-29T23:08:40.203Z,0.27
2023-01-29T23:11:42.780Z,0.31
2023-01-29T23:14:45.179Z,0.31
2023-01-29T23:17:47.799Z,0.34
2023-01-29T23:20:56.676Z,0.34
2023-01-29T23:24:00.579Z,0.31
2023-01-29T23:27:15.206Z,0.37
2023-01-29T23:30:18.254Z,0.31
2023-01-29T23:33:21.024Z,0.39
2023-01-29T23:36:23.971Z,0.20
2023-01-29T23:39:26.391Z,0.27
2023-01-29T23:42:29.085Z,0.30
2023-01-29T23:45:31.471Z,0.27
2023-01-29T23:48:34.740Z,0.28
2023-01-29T23:51:37.119Z,0.28
2023-01-29T23:54:39.755Z,0.16
2023-01-29T23:57:42.111Z,0.22
